Time;durP1;ratioP1;P1;durP2;ratioP2;P2;SDS_P1;SDS_P2;PMS_P1;PMS_P2;Temp;Humidity;BMP_temperature;BMP_pressure;BME280_temperature;BME280_humidity;BME280_pressure;Samples;Min_cycle;Max_cycle;Signal;HPM_P1;HPM_P2
2022/12/30 00:00:38;;;;;;;7.80;1.80;;;7.30;99.90;;;;;;6161634;23;20295;-68
2022/12/30 00:03:06;;;;;;;13.60;1.65;;;7.30;99.90;;;;;;6161588;23;20001;-68
2022/12/30 00:05:33;;;;;;;21.90;3.03;;;7.30;99.90;;;;;;6160783;23;20004;-69
2022/12/30 00:08:01;;;;;;;8.10;1.50;;;7.20;99.90;;;;;;6160206;23;20362;-68
2022/12/30 00:10:28;;;;;;;10.05;1.45;;;7.30;99.90;;;;;;6160892;23;20059;-68
2022/12/30 00:35:17;;;;;;;9.77;1.65;;;7.30;99.90;;;;;;6160493;23;20121;-68
2022/12/30 00:37:44;;;;;;;8.77;1.13;;;7.30;99.90;;;;;;6161621;23;20228;-69
2022/12/30 00:40:12;;;;;;;4.28;1.50;;;7.30;99.90;;;;;;6160907;23;19993;-69
2022/12/30 00:45:26;;;;;;;14.63;3.05;;;7.30;99.90;;;;;;6160865;23;20023;-69
2022/12/30 00:47:53;;;;;;;8.35;3.03;;;7.30;99.90;;;;;;6159115;23;20006;-68
2022/12/30 00:58:37;;;;;;;11.03;3.17;;;7.30;99.90;;;;;;6159691;23;20012;-69
2022/12/30 01:01:04;;;;;;;7.38;2.67;;;7.30;99.90;;;;;;6160681;23;20001;-68
2022/12/30 01:03:32;;;;;;;10.57;1.85;;;7.30;99.90;;;;;;6160439;23;20097;-68
2022/12/30 01:06:06;;;;;;;11.00;3.05;;;7.30;99.90;;;;;;6160967;23;20002;-69
2022/12/30 01:08:34;;;;;;;14.48;2.72;;;7.30;99.90;;;;;;6158960;23;20006;-68
2022/12/30 01:11:11;;;;;;;7.82;2.92;;;7.30;99.90;;;;;;6160105;23;20076;-69
2022/12/30 01:13:39;;;;;;;11.00;2.42;;;7.30;99.90;;;;;;6160471;23;20002;-69
2022/12/30 01:16:12;;;;;;;9.30;1.98;;;7.30;99.90;;;;;;6158929;23;20442;-69
2022/12/30 01:18:41;;;;;;;9.38;1.88;;;7.30;99.90;;;;;;6160003;23;20006;-68
2022/12/30 01:21:09;;;;;;;8.15;2.30;;;7.30;99.90;;;;;;6158881;23;20398;-69
2022/12/30 01:23:36;;;;;;;10.60;2.00;;;7.30;99.90;;;;;;6159041;23;20005;-69
2022/12/30 01:26:05;;;;;;;14.07;3.45;;;7.30;99.90;;;;;;6158810;23;20027;-69
2022/12/30 01:28:34;;;;;;;8.38;2.42;;;7.30;99.90;;;;;;6158874;23;20009;-68
2022/12/30 01:31:05;;;;;;;16.95;3.05;;;7.30;99.90;;;;;;6160161;23;20001;-69
2022/12/30 01:33:33;;;;;;;10.50;2.72;;;7.30;99.90;;;;;;6135319;23;20019;-68
2022/12/30 01:36:00;;;;;;;13.15;2.00;;;7.30;99.90;;;;;;6160107;23;20006;-69
2022/12/30 01:38:30;;;;;;;15.00;2.42;;;7.20;99.90;;;;;;6159876;23;20002;-68
2022/12/30 01:40:58;;;;;;;7.55;1.73;;;7.20;99.90;;;;;;6160079;23;20009;-69
2022/12/30 01:43:42;;;;;;;9.07;2.63;;;7.30;99.90;;;;;;6160242;23;20002;-69
2022/12/30 01:46:12;;;;;;;9.38;1.83;;;7.20;99.90;;;;;;6159890;23;20025;-69
2022/12/30 01:48:40;;;;;;;10.07;2.13;;;7.20;99.90;;;;;;6159954;23;20006;-69
2022/12/30 01:51:26;;;;;;;15.77;3.05;;;7.20;99.90;;;;;;6134118;23;20102;-69
2022/12/30 01:53:58;;;;;;;11.13;1.60;;;7.20;99.90;;;;;;6160032;23;20005;-69
2022/12/30 01:56:36;;;;;;;9.02;1.40;;;7.20;99.90;;;;;;6160266;23;20064;-69
2022/12/30 01:59:14;;;;;;;13.85;2.28;;;7.20;99.90;;;;;;6159887;23;20274;-68
2022/12/30 02:01:42;;;;;;;11.23;2.97;;;7.20;99.90;;;;;;6159867;23;20362;-69
2022/12/30 02:04:15;;;;;;;11.05;1.83;;;7.20;99.90;;;;;;6158502;23;20279;-69
2022/12/30 02:06:52;;;;;;;10.60;1.67;;;7.20;99.90;;;;;;6159804;23;20016;-68
2022/12/30 02:09:20;;;;;;;8.02;1.58;;;7.20;99.90;;;;;;6159941;23;20002;-69
2022/12/30 02:11:47;;;;;;;12.98;1.60;;;7.20;99.90;;;;;;6159031;23;20002;-69
2022/12/30 02:14:15;;;;;;;9.52;2.53;;;7.20;99.90;;;;;;6158736;23;20036;-68
2022/12/30 02:17:06;;;;;;;9.88;2.35;;;7.20;99.90;;;;;;6158511;23;20093;-69
2022/12/30 02:20:10;;;;;;;13.48;2.22;;;7.20;99.90;;;;;;6158496;23;20010;-69
2022/12/30 02:23:17;;;;;;;20.20;1.98;;;7.20;99.90;;;;;;6160358;23;20001;-69
2022/12/30 02:26:12;;;;;;;12.57;1.80;;;7.10;99.90;;;;;;6159838;23;20013;-69
2022/12/30 02:29:12;;;;;;;9.88;2.17;;;7.10;99.90;;;;;;6160541;23;20053;-69
2022/12/30 02:32:00;;;;;;;7.57;1.23;;;7.10;99.90;;;;;;6160144;23;20052;-69
2022/12/30 02:34:42;;;;;;;9.45;2.30;;;7.10;99.90;;;;;;6158564;23;20092;-69
2022/12/30 02:37:21;;;;;;;13.07;1.88;;;7.10;99.90;;;;;;6159686;23;20002;-69
2022/12/30 02:40:18;;;;;;;7.30;1.23;;;7.10;99.90;;;;;;6159744;23;20264;-69
2022/12/30 02:45:41;;;;;;;20.42;3.67;;;7.20;99.90;;;;;;6159752;23;19907;-68
2022/12/30 02:48:31;;;;;;;10.93;1.95;;;7.10;99.90;;;;;;6159655;23;20009;-69
2022/12/30 02:53:47;;;;;;;14.85;2.17;;;7.10;99.90;;;;;;6162055;23;20052;-69
2022/12/30 02:56:14;;;;;;;8.80;1.58;;;7.10;99.90;;;;;;6160205;23;20006;-69
2022/12/30 03:03:57;;;;;;;15.48;2.88;;;7.00;99.90;;;;;;6160959;23;20065;-68
2022/12/30 03:04:52;;;;;;;8.50;2.10;;;7.10;99.90;;;;;;6161599;23;20040;-69
2022/12/30 03:07:45;;;;;;;9.97;1.87;;;7.10;99.90;;;;;;6160097;23;20071;-69
2022/12/30 03:13:14;;;;;;;11.75;1.98;;;7.10;99.90;;;;;;6161410;23;20013;-69
2022/12/30 03:16:06;;;;;;;9.77;2.47;;;7.10;99.90;;;;;;6161547;23;20005;-69
2022/12/30 03:18:34;;;;;;;7.28;2.00;;;7.10;99.90;;;;;;6161337;23;20012;-69
2022/12/30 03:21:06;;;;;;;10.93;1.90;;;7.10;99.90;;;;;;6161266;23;19998;-69
2022/12/30 03:29:17;;;;;;;13.90;1.70;;;7.00;99.90;;;;;;6161809;23;20028;-69
2022/12/30 03:31:47;;;;;;;11.13;1.65;;;7.00;99.90;;;;;;6161114;23;20048;-69
2022/12/30 03:34:14;;;;;;;8.05;2.47;;;7.00;99.90;;;;;;6161672;23;20001;-69
2022/12/30 03:36:45;;;;;;;10.27;1.45;;;7.00;99.90;;;;;;6161479;23;20006;-69
2022/12/30 03:39:24;;;;;;;8.45;1.10;;;7.00;99.90;;;;;;6161414;23;20006;-69
2022/12/30 03:41:52;;;;;;;10.95;2.53;;;7.00;99.90;;;;;;6161150;23;20001;-69
2022/12/30 03:44:20;;;;;;;10.65;1.40;;;6.90;99.90;;;;;;6161570;23;20002;-69
2022/12/30 03:46:49;;;;;;;18.33;2.13;;;7.00;99.90;;;;;;6161119;23;20423;-69
2022/12/30 03:49:17;;;;;;;12.00;1.63;;;7.00;99.90;;;;;;6161472;23;20001;-68
2022/12/30 03:51:44;;;;;;;11.70;2.03;;;6.90;99.90;;;;;;6161011;23;20082;-69
2022/12/30 03:54:12;;;;;;;15.85;2.00;;;6.90;99.90;;;;;;6159911;23;20017;-69
2022/12/30 03:56:40;;;;;;;12.15;2.65;;;6.90;99.90;;;;;;6160909;23;20402;-69
2022/12/30 03:59:07;;;;;;;9.27;1.98;;;6.90;99.90;;;;;;6159815;23;20078;-69
2022/12/30 04:01:35;;;;;;;7.93;2.38;;;6.90;99.90;;;;;;6160665;23;20009;-69
2022/12/30 04:04:02;;;;;;;18.55;2.40;;;6.90;99.90;;;;;;6160972;23;20077;-69
2022/12/30 04:06:30;;;;;;;13.60;2.80;;;6.90;99.90;;;;;;6159726;23;20009;-69
2022/12/30 04:08:57;;;;;;;12.15;1.83;;;6.80;99.90;;;;;;6159660;23;20005;-69
2022/12/30 04:11:24;;;;;;;11.02;1.65;;;6.80;99.90;;;;;;6159532;23;20009;-68
2022/12/30 04:13:52;;;;;;;8.13;1.83;;;6.70;99.90;;;;;;6161047;23;20036;-69
2022/12/30 04:16:19;;;;;;;10.00;1.40;;;6.70;99.90;;;;;;6160709;23;20005;-69
2022/12/30 04:18:46;;;;;;;9.50;2.45;;;6.60;99.90;;;;;;6159243;23;20006;-68
2022/12/30 04:21:14;;;;;;;6.80;1.45;;;6.60;99.90;;;;;;6161415;23;20002;-69
2022/12/30 04:23:41;;;;;;;10.88;1.98;;;6.60;99.90;;;;;;6160754;23;20004;-69
2022/12/30 04:26:08;;;;;;;10.13;1.80;;;6.50;99.90;;;;;;6160409;23;20017;-69
2022/12/30 04:28:35;;;;;;;8.35;1.63;;;6.50;99.90;;;;;;6159789;23;20402;-69
2022/12/30 04:31:02;;;;;;;9.68;1.83;;;6.50;99.90;;;;;;6160646;23;20005;-69
2022/12/30 04:33:29;;;;;;;10.57;1.80;;;6.50;99.90;;;;;;6159407;23;20010;-69
2022/12/30 04:35:57;;;;;;;9.10;1.83;;;6.50;99.90;;;;;;6160495;23;20370;-69
2022/12/30 04:38:24;;;;;;;13.57;1.77;;;6.50;99.90;;;;;;6161317;23;20079;-69
2022/12/30 04:40:52;;;;;;;13.18;1.85;;;6.60;99.90;;;;;;6160578;23;20002;-69
2022/12/30 04:43:19;;;;;;;7.03;1.40;;;6.50;99.90;;;;;;6159211;23;20405;-68
2022/12/30 04:45:46;;;;;;;11.25;1.88;;;6.60;99.90;;;;;;6160519;23;20022;-69
2022/12/30 04:48:13;;;;;;;14.20;1.17;;;6.60;99.90;;;;;;6160667;23;20073;-69
2022/12/30 04:50:44;;;;;;;12.07;2.22;;;6.60;99.90;;;;;;6134656;23;20321;-69
2022/12/30 04:53:12;;;;;;;12.18;2.72;;;6.60;99.90;;;;;;6160382;23;20298;-69
2022/12/30 04:55:39;;;;;;;8.98;1.63;;;6.70;99.90;;;;;;6159102;23;20016;-69
2022/12/30 04:58:07;;;;;;;12.93;1.30;;;6.70;99.90;;;;;;6160780;23;20001;-69
2022/12/30 05:00:34;;;;;;;10.55;1.58;;;6.70;99.90;;;;;;6161038;23;20004;-69
2022/12/30 05:03:02;;;;;;;6.13;1.90;;;6.70;99.90;;;;;;6159111;23;20371;-68
2022/12/30 05:05:30;;;;;;;8.68;1.15;;;6.80;99.90;;;;;;6158959;23;20267;-69
2022/12/30 05:07:57;;;;;;;18.67;2.05;;;6.80;99.90;;;;;;6161173;23;20002;-69
2022/12/30 05:10:24;;;;;;;12.18;1.30;;;6.80;99.90;;;;;;6160964;23;20389;-69
2022/12/30 05:12:51;;;;;;;12.18;1.63;;;6.80;99.90;;;;;;6160027;23;20005;-68
2022/12/30 05:15:18;;;;;;;9.63;1.65;;;6.80;99.90;;;;;;6159792;23;20001;-69
2022/12/30 05:17:46;;;;;;;7.45;2.95;;;6.80;99.90;;;;;;6160923;23;20001;-69
2022/12/30 05:20:13;;;;;;;10.18;1.33;;;6.70;99.90;;;;;;6160797;23;20006;-69
2022/12/30 05:22:41;;;;;;;7.40;2.17;;;6.70;99.90;;;;;;6158919;23;20390;-69
2022/12/30 05:27:54;;;;;;;9.13;2.63;;;6.70;99.90;;;;;;6160384;23;20456;-69
2022/12/30 05:30:22;;;;;;;14.48;1.92;;;6.70;99.90;;;;;;6160128;23;20005;-69
2022/12/30 05:32:50;;;;;;;13.18;1.80;;;6.70;99.90;;;;;;6160797;23;20060;-69
2022/12/30 05:35:17;;;;;;;16.40;1.92;;;6.80;99.90;;;;;;6160003;23;20009;-69
2022/12/30 05:37:45;;;;;;;15.40;1.60;;;6.70;99.90;;;;;;6160025;23;20006;-69
2022/12/30 05:40:12;;;;;;;8.95;1.10;;;6.70;99.90;;;;;;6159539;23;20002;-69
2022/12/30 05:42:40;;;;;;;15.57;2.25;;;6.70;99.90;;;;;;6160361;23;20032;-69
2022/12/30 05:45:08;;;;;;;10.63;1.20;;;6.80;99.90;;;;;;6158638;23;20005;-69
2022/12/30 05:47:36;;;;;;;8.10;1.40;;;6.80;99.90;;;;;;6160235;23;20367;-68
2022/12/30 05:50:04;;;;;;;15.32;1.88;;;6.80;99.90;;;;;;6158535;23;20064;-69
2022/12/30 05:52:31;;;;;;;10.18;2.15;;;6.70;99.90;;;;;;6160095;23;20010;-69
2022/12/30 05:54:59;;;;;;;14.23;1.60;;;6.70;99.90;;;;;;6159968;23;20248;-68
2022/12/30 05:57:26;;;;;;;17.58;3.20;;;6.70;99.90;;;;;;6160526;23;20002;-69
2022/12/30 05:59:54;;;;;;;13.20;2.25;;;6.60;99.90;;;;;;6160514;23;20001;-68
2022/12/30 06:02:21;;;;;;;10.98;1.92;;;6.60;99.90;;;;;;6160715;23;20042;-69
2022/12/30 06:04:48;;;;;;;11.52;2.20;;;6.50;99.90;;;;;;6158560;23;20368;-69
2022/12/30 06:07:16;;;;;;;11.98;2.28;;;6.40;99.90;;;;;;6158610;23;20060;-69
2022/12/30 06:09:43;;;;;;;10.93;1.60;;;6.40;99.90;;;;;;6158587;23;20013;-69
2022/12/30 06:12:10;;;;;;;8.43;2.55;;;6.40;99.90;;;;;;6160077;23;20001;-68
2022/12/30 06:14:38;;;;;;;11.75;1.67;;;6.40;99.90;;;;;;6160576;23;20068;-68
2022/12/30 06:17:05;;;;;;;7.28;2.00;;;6.40;99.90;;;;;;6158677;23;20067;-69
2022/12/30 06:19:32;;;;;;;4.78;1.30;;;6.30;99.90;;;;;;6158359;23;20374;-69
2022/12/30 06:21:59;;;;;;;10.02;1.20;;;6.20;99.90;;;;;;6158722;23;20001;-69
2022/12/30 06:24:27;;;;;;;12.23;1.33;;;6.20;99.90;;;;;;6160368;23;20389;-68
2022/12/30 06:26:58;;;;;;;8.60;2.00;;;6.10;99.90;;;;;;6161522;23;20090;-68
2022/12/30 06:29:25;;;;;;;5.15;1.98;;;6.00;99.90;;;;;;6162234;23;20009;-68
2022/12/30 06:31:52;;;;;;;5.82;1.15;;;5.90;99.90;;;;;;6161731;23;20005;-69
2022/12/30 06:34:19;;;;;;;10.93;1.65;;;5.90;99.90;;;;;;6161818;23;20012;-69
2022/12/30 06:36:47;;;;;;;8.30;2.25;;;5.80;99.90;;;;;;6161981;23;20060;-68
2022/12/30 06:39:14;;;;;;;10.18;1.58;;;5.80;99.90;;;;;;6162298;23;20033;-68
2022/12/30 06:41:42;;;;;;;7.78;1.20;;;5.80;99.90;;;;;;6161554;23;20009;-69
2022/12/30 06:44:09;;;;;;;6.13;1.00;;;5.70;99.90;;;;;;6160511;23;20006;-69
2022/12/30 06:46:36;;;;;;;6.72;2.35;;;5.70;99.90;;;;;;6160753;23;20006;-69
2022/12/30 06:49:03;;;;;;;12.82;2.63;;;5.70;99.90;;;;;;6161452;23;20021;-69
2022/12/30 06:51:31;;;;;;;15.40;1.95;;;5.70;99.90;;;;;;6160758;23;20002;-70
2022/12/30 06:53:58;;;;;;;10.82;1.92;;;5.70;99.90;;;;;;6160219;23;20031;-76
2022/12/30 06:56:25;;;;;;;9.77;2.40;;;5.70;99.90;;;;;;6161883;23;20005;-74
2022/12/30 06:58:52;;;;;;;8.70;2.28;;;5.70;99.90;;;;;;6160093;23;20009;-73
2022/12/30 07:01:19;;;;;;;7.28;1.75;;;5.60;99.90;;;;;;6161494;23;20264;-74
2022/12/30 07:03:46;;;;;;;13.38;2.90;;;5.60;99.90;;;;;;6161401;23;20036;-73
2022/12/30 07:06:13;;;;;;;11.82;2.03;;;5.60;99.90;;;;;;6162122;23;20354;-73
2022/12/30 07:08:41;;;;;;;13.15;4.40;;;5.60;99.90;;;;;;6160275;23;20006;-74
2022/12/30 07:11:08;;;;;;;21.13;5.47;;;5.50;99.90;;;;;;6160156;23;20084;-73
2022/12/30 07:13:36;;;;;;;21.23;5.63;;;5.50;99.90;;;;;;6160126;23;20021;-74
2022/12/30 07:16:03;;;;;;;14.48;2.97;;;5.50;99.90;;;;;;6162073;23;20014;-73
2022/12/30 07:18:31;;;;;;;13.75;3.20;;;5.50;99.90;;;;;;6161499;23;20089;-73
2022/12/30 07:20:58;;;;;;;8.55;1.58;;;5.40;99.90;;;;;;6159917;23;20009;-74
2022/12/30 07:23:25;;;;;;;12.07;2.92;;;5.40;99.90;;;;;;6161308;23;20001;-75
2022/12/30 07:25:53;;;;;;;13.40;3.10;;;5.30;99.90;;;;;;6159574;23;20068;-73
2022/12/30 07:28:20;;;;;;;9.85;2.83;;;5.30;99.90;;;;;;6161488;23;20401;-75
2022/12/30 07:30:48;;;;;;;13.32;2.38;;;5.30;99.90;;;;;;6161712;23;20056;-75
2022/12/30 07:33:15;;;;;;;5.93;1.92;;;5.30;99.90;;;;;;6161141;23;20009;-76
2022/12/30 07:35:43;;;;;;;4.32;1.30;;;5.30;99.90;;;;;;6160837;23;20013;-76
2022/12/30 07:38:10;;;;;;;7.68;2.80;;;5.30;99.90;;;;;;6160730;23;20033;-76
2022/12/30 07:40:37;;;;;;;12.52;2.00;;;5.20;99.90;;;;;;6161390;23;20002;-75
2022/12/30 07:43:04;;;;;;;7.13;1.52;;;5.20;99.90;;;;;;6159801;23;20076;-74
2022/12/30 07:45:32;;;;;;;7.70;2.10;;;5.20;99.90;;;;;;6161064;23;20022;-73
2022/12/30 07:47:59;;;;;;;9.35;1.77;;;5.20;99.90;;;;;;6161289;23;20002;-74
2022/12/30 07:50:27;;;;;;;5.15;1.23;;;5.10;99.90;;;;;;6161118;23;20033;-73
2022/12/30 07:52:54;;;;;;;7.68;2.50;;;5.10;99.90;;;;;;6160982;23;20013;-75
2022/12/30 07:55:22;;;;;;;11.85;2.38;;;5.10;99.90;;;;;;6161394;23;20314;-74
2022/12/30 07:57:49;;;;;;;11.25;2.15;;;5.10;99.90;;;;;;6161062;23;20089;-72
2022/12/30 08:00:18;;;;;;;8.55;1.98;;;5.00;99.90;;;;;;6161606;23;20017;-73
2022/12/30 08:02:46;;;;;;;7.35;2.22;;;5.00;99.90;;;;;;6160904;23;20002;-72
2022/12/30 08:05:13;;;;;;;14.23;3.42;;;5.00;99.90;;;;;;6161085;23;20052;-72
2022/12/30 08:07:40;;;;;;;17.90;6.75;;;5.00;99.90;;;;;;6159597;23;20006;-72
2022/12/30 08:10:09;;;;;;;10.82;2.85;;;5.00;99.90;;;;;;6161731;23;20371;-72
2022/12/30 08:12:36;;;;;;;8.20;1.83;;;5.00;99.90;;;;;;6159558;23;20009;-72
2022/12/30 08:15:04;;;;;;;10.90;1.92;;;5.00;99.90;;;;;;6159496;23;20450;-73
2022/12/30 08:17:31;;;;;;;9.32;2.33;;;5.00;99.90;;;;;;6159366;23;20399;-73
2022/12/30 08:19:58;;;;;;;5.22;1.45;;;5.00;99.90;;;;;;6159603;23;20092;-73
2022/12/30 08:22:26;;;;;;;7.53;1.80;;;5.00;99.90;;;;;;6160869;23;20024;-73
2022/12/30 08:24:54;;;;;;;9.07;1.00;;;5.00;99.90;;;;;;6161415;23;19998;-73
2022/12/30 08:27:21;;;;;;;8.65;2.42;;;5.00;99.90;;;;;;6159163;23;20021;-73
2022/12/30 08:29:49;;;;;;;11.48;1.40;;;5.00;99.90;;;;;;6134817;23;20311;-73
2022/12/30 08:32:16;;;;;;;10.63;2.30;;;5.10;99.90;;;;;;6160858;23;20009;-73
2022/12/30 08:34:43;;;;;;;8.50;2.15;;;5.00;99.90;;;;;;6159201;23;20001;-73
2022/12/30 08:37:13;;;;;;;8.82;1.90;;;5.10;99.90;;;;;;6160703;23;20001;-71
2022/12/30 08:39:40;;;;;;;6.18;1.38;;;5.10;99.90;;;;;;6160573;23;20033;-73
2022/12/30 08:42:08;;;;;;;10.20;2.58;;;5.10;99.90;;;;;;6160755;23;20002;-73
2022/12/30 08:44:35;;;;;;;10.10;1.58;;;5.20;99.90;;;;;;6160609;23;20330;-73
2022/12/30 08:47:02;;;;;;;9.10;2.10;;;5.20;99.90;;;;;;6159082;23;20021;-76
2022/12/30 08:49:30;;;;;;;5.97;1.33;;;5.20;99.90;;;;;;6160090;23;20005;-77
2022/12/30 08:51:57;;;;;;;9.48;2.20;;;5.20;99.90;;;;;;6159087;23;20006;-73
2022/12/30 08:54:24;;;;;;;8.10;2.67;;;5.30;99.90;;;;;;6160854;23;20239;-74
2022/12/30 08:56:52;;;;;;;14.40;1.58;;;5.30;99.90;;;;;;6160460;23;20076;-74
2022/12/30 08:59:20;;;;;;;12.20;2.25;;;5.40;99.90;;;;;;6160293;23;20086;-74
2022/12/30 09:01:47;;;;;;;7.78;1.50;;;5.40;99.90;;;;;;6160397;23;20366;-74
2022/12/30 09:04:14;;;;;;;9.32;2.58;;;5.50;99.90;;;;;;6159926;23;20008;-74
2022/12/30 09:06:42;;;;;;;7.22;1.42;;;5.50;99.90;;;;;;6161074;23;20008;-74
2022/12/30 09:09:12;;;;;;;10.77;1.65;;;5.60;99.90;;;;;;6159028;23;20389;-74
2022/12/30 09:11:41;;;;;;;8.85;1.73;;;5.60;99.90;;;;;;6158983;23;20009;-74
2022/12/30 09:14:11;;;;;;;8.52;1.27;;;5.70;99.90;;;;;;6159098;23;20016;-73
2022/12/30 09:16:38;;;;;;;5.38;1.30;;;5.80;99.90;;;;;;6160181;23;20010;-73
2022/12/30 09:19:06;;;;;;;4.90;1.65;;;5.90;99.90;;;;;;6160636;23;20005;-73
2022/12/30 09:21:33;;;;;;;11.90;1.55;;;5.90;99.90;;;;;;6158892;23;20005;-73
2022/12/30 09:24:01;;;;;;;6.53;1.73;;;6.00;99.90;;;;;;6160797;23;20347;-73
2022/12/30 09:26:29;;;;;;;6.57;2.30;;;6.00;99.90;;;;;;6159822;23;20285;-73
2022/12/30 09:28:57;;;;;;;10.55;1.23;;;6.10;99.90;;;;;;6160658;23;20081;-73
2022/12/30 09:31:25;;;;;;;9.15;1.30;;;6.10;99.90;;;;;;6159922;23;20060;-73
2022/12/30 09:33:52;;;;;;;9.90;1.55;;;6.20;99.90;;;;;;6159966;23;20031;-73
2022/12/30 09:36:20;;;;;;;11.07;1.92;;;6.20;99.90;;;;;;6160580;23;20386;-76
2022/12/30 09:38:48;;;;;;;8.77;2.35;;;6.30;99.90;;;;;;6160106;23;20005;-74
2022/12/30 09:44:34;;;;;;;7.15;1.60;;;6.40;99.90;;;;;;6160059;23;20398;-73
2022/12/30 09:47:22;;;;;;;26.98;9.50;;;6.40;99.90;;;;;;6160470;23;20008;-73
2022/12/30 09:50:04;;;;;;;7.72;1.50;;;6.50;99.90;;;;;;6159908;23;20055;-73
2022/12/30 09:53:00;;;;;;;12.13;1.50;;;6.50;99.90;;;;;;6160672;23;20344;-73
2022/12/30 09:55:59;;;;;;;7.75;1.92;;;6.60;99.90;;;;;;6158606;23;20048;-73
2022/12/30 09:58:35;;;;;;;8.85;1.60;;;6.60;99.90;;;;;;6056485;23;20014;-74
2022/12/30 10:01:33;;;;;;;13.30;2.33;;;6.70;99.90;;;;;;6159821;23;20272;-76
2022/12/30 10:04:01;;;;;;;7.70;1.20;;;6.70;99.90;;;;;;6159922;23;20316;-74
2022/12/30 10:06:37;;;;;;;11.90;2.65;;;6.70;99.90;;;;;;6158601;23;20017;-73
2022/12/30 10:09:12;;;;;;;7.45;0.98;;;6.80;99.90;;;;;;6160075;23;20378;-73
2022/12/30 10:12:02;;;;;;;10.68;1.70;;;6.90;99.90;;;;;;6160568;23;20001;-73
2022/12/30 10:14:39;;;;;;;6.82;2.65;;;7.00;99.90;;;;;;6159807;23;20080;-73
2022/12/30 10:17:19;;;;;;;8.10;1.25;;;7.00;99.90;;;;;;6159932;23;20375;-73
2022/12/30 10:20:07;;;;;;;1.33;0.55;;;7.10;99.90;;;;;;6158401;23;20017;-73
2022/12/30 10:23:00;;;;;;;6.30;1.50;;;7.10;99.90;;;;;;6160511;23;19997;-73
2022/12/30 10:26:13;;;;;;;5.20;1.02;;;7.10;99.90;;;;;;6159568;23;20018;-77
2022/12/30 10:28:58;;;;;;;7.95;1.55;;;7.20;99.90;;;;;;6095366;23;20043;-74
2022/12/30 10:31:30;;;;;;;4.78;1.25;;;7.20;99.90;;;;;;6159807;23;20328;-73
2022/12/30 10:34:14;;;;;;;4.72;0.80;;;7.20;99.90;;;;;;6159677;23;20052;-73
2022/12/30 10:36:41;;;;;;;6.45;1.00;;;7.30;99.90;;;;;;6158475;23;20005;-73
2022/12/30 10:39:41;;;;;;;7.22;1.77;;;7.30;99.90;;;;;;6159945;23;20340;-73
2022/12/30 10:42:51;;;;;;;8.23;1.52;;;7.40;99.90;;;;;;6120992;23;20013;-74
2022/12/30 10:45:42;;;;;;;6.13;1.38;;;7.40;99.90;;;;;;6158374;23;20002;-73
2022/12/30 10:48:30;;;;;;;4.85;1.20;;;7.40;99.90;;;;;;6160162;23;20076;-74
2022/12/30 10:50:57;;;;;;;6.18;1.23;;;7.50;99.90;;;;;;6159784;23;20081;-73
2022/12/30 10:53:28;;;;;;;8.65;1.13;;;7.50;99.90;;;;;;6159971;23;20001;-73
2022/12/30 10:56:04;;;;;;;9.45;1.58;;;7.50;99.90;;;;;;6159815;23;20055;-73
2022/12/30 10:58:52;;;;;;;18.92;2.33;;;7.50;99.90;;;;;;6160046;23;20001;-73
2022/12/30 11:01:23;;;;;;;14.02;4.07;;;7.50;99.90;;;;;;6158343;23;20005;-72
2022/12/30 11:03:53;;;;;;;11.95;2.20;;;7.60;99.90;;;;;;6159766;23;19997;-72
2022/12/30 11:06:22;;;;;;;6.50;1.10;;;7.60;99.90;;;;;;6159620;23;20044;-73
2022/12/30 11:08:50;;;;;;;9.23;2.25;;;7.60;99.90;;;;;;6160012;23;20319;-74
2022/12/30 11:11:18;;;;;;;8.25;2.15;;;7.70;99.90;;;;;;6160706;23;20255;-73
2022/12/30 11:16:42;;;;;;;9.75;2.47;;;7.70;99.90;;;;;;6161721;23;20060;-73
2022/12/30 11:19:23;;;;;;;6.72;2.35;;;7.70;99.90;;;;;;6159886;23;20033;-73
2022/12/30 11:22:03;;;;;;;11.38;2.38;;;7.70;99.90;;;;;;6162002;23;20004;-72
2022/12/30 11:24:30;;;;;;;11.38;1.85;;;7.80;99.90;;;;;;6161335;23;19998;-72
2022/12/30 11:26:58;;;;;;;10.50;3.13;;;7.80;99.90;;;;;;6159768;23;20018;-72
2022/12/30 11:29:30;;;;;;;9.80;2.78;;;7.80;99.90;;;;;;6161207;23;20013;-71
2022/12/30 11:31:58;;;;;;;6.05;2.05;;;7.90;99.90;;;;;;6159997;23;20009;-73
2022/12/30 11:34:38;;;;;;;8.38;1.55;;;7.90;99.90;;;;;;6160222;23;20017;-73
2022/12/30 11:37:36;;;;;;;6.10;1.95;;;7.90;99.90;;;;;;6161195;23;20052;-73
2022/12/30 11:40:26;;;;;;;;;;;8.00;99.90;;;;;;6137840;23;20037;-73
2022/12/30 11:43:13;;;;;;;7.00;1.48;;;8.00;99.90;;;;;;6145618;23;20222;-73
2022/12/30 11:46:05;;;;;;;8.57;1.63;;;8.10;99.90;;;;;;6161010;23;20449;-73
2022/12/30 11:49:05;;;;;;;3.25;1.10;;;8.10;99.90;;;;;;6161708;23;20005;-73
2022/12/30 11:51:42;;;;;;;3.80;1.10;;;8.10;99.90;;;;;;6155607;23;20002;-73
2022/12/30 11:54:12;;;;;;;6.10;1.27;;;8.10;99.90;;;;;;6160989;23;20263;-74
2022/12/30 11:56:53;;;;;;;6.68;1.52;;;8.10;99.90;;;;;;6161677;23;20001;-73
2022/12/30 11:59:25;;;;;;;13.57;3.40;;;8.10;99.90;;;;;;6160812;23;20012;-73
2022/12/30 12:01:58;;;;;;;6.80;1.13;;;8.20;99.90;;;;;;6160906;23;20001;-72
2022/12/30 12:04:39;;;;;;;6.78;1.20;;;8.30;99.90;;;;;;6160818;23;20367;-73
2022/12/30 12:07:25;;;;;;;7.85;2.28;;;8.30;99.90;;;;;;6160875;23;20025;-73
2022/12/30 12:09:59;;;;;;;5.00;1.17;;;8.30;99.90;;;;;;6161302;23;20009;-73
2022/12/30 12:12:33;;;;;;;5.20;1.58;;;8.40;99.90;;;;;;6160795;23;20012;-73
2022/12/30 12:15:28;;;;;;;5.07;1.73;;;8.40;99.90;;;;;;6159490;23;20096;-73
2022/12/30 12:18:00;;;;;;;8.27;0.93;;;8.40;99.90;;;;;;6160723;23;20327;-75
2022/12/30 12:20:54;;;;;;;6.55;0.90;;;8.40;99.90;;;;;;6160596;23;20390;-75
2022/12/30 12:24:03;;;;;;;4.97;1.00;;;8.50;99.90;;;;;;6155506;23;20002;-74
2022/12/30 12:26:45;;;;;;;4.25;1.10;;;8.40;99.90;;;;;;6160533;23;20017;-74
2022/12/30 12:29:14;;;;;;;4.93;1.05;;;8.50;99.90;;;;;;6160996;23;20005;-74
2022/12/30 12:32:17;;;;;;;9.98;1.20;;;8.50;99.90;;;;;;6159295;23;20466;-73
2022/12/30 12:35:05;;;;;;;3.92;1.00;;;8.50;99.90;;;;;;6123459;23;20005;-72
2022/12/30 12:38:01;;;;;;;6.05;0.85;;;8.50;99.90;;;;;;6160560;23;20029;-75
2022/12/30 12:40:47;;;;;;;3.35;0.80;;;8.50;99.90;;;;;;6161292;23;20029;-72
2022/12/30 12:43:45;;;;;;;5.22;0.80;;;8.50;99.90;;;;;;6161276;23;20017;-73
2022/12/30 12:46:22;;;;;;;4.03;0.70;;;8.50;99.90;;;;;;6160847;23;20370;-73
2022/12/30 12:49:14;;;;;;;4.25;0.70;;;8.50;99.90;;;;;;6160930;23;20105;-73
2022/12/30 12:52:07;;;;;;;3.50;1.33;;;8.50;99.90;;;;;;6160691;23;20006;-74
2022/12/30 12:54:50;;;;;;;3.55;0.98;;;8.50;99.90;;;;;;6160781;23;20029;-73
2022/12/30 12:57:58;;;;;;;5.30;1.30;;;8.50;99.90;;;;;;6161047;23;20002;-73
2022/12/30 13:00:53;;;;;;;3.97;1.10;;;8.50;99.90;;;;;;6144796;23;20173;-73
2022/12/30 13:03:40;;;;;;;2.65;1.25;;;8.50;99.90;;;;;;6144524;23;20124;-73
2022/12/30 13:06:33;;;;;;;4.88;1.10;;;8.40;99.90;;;;;;6160956;23;20001;-73
2022/12/30 13:09:22;;;;;;;8.63;1.52;;;8.40;99.90;;;;;;6160299;23;20121;-75
2022/12/30 13:12:20;;;;;;;6.43;1.25;;;8.40;99.90;;;;;;6160660;23;20001;-73
2022/12/30 13:14:56;;;;;;;;;;;8.40;99.90;;;;;;6160669;23;20005;-73
2022/12/30 13:17:36;;;;;;;1.17;0.50;;;8.40;99.90;;;;;;6160438;23;19900;-73
2022/12/30 13:20:21;;;;;;;4.35;1.65;;;8.40;99.90;;;;;;6159978;23;20279;-73
2022/12/30 13:22:49;;;;;;;4.88;1.25;;;8.30;99.90;;;;;;6160128;23;20367;-73
2022/12/30 13:25:35;;;;;;;3.47;0.80;;;8.40;99.90;;;;;;6158543;23;20006;-73
2022/12/30 13:28:02;;;;;;;9.27;1.40;;;8.30;99.90;;;;;;6160060;23;20391;-73
2022/12/30 13:30:40;;;;;;;7.75;1.50;;;8.20;99.90;;;;;;6160043;23;20052;-73
2022/12/30 13:33:27;;;;;;;5.07;0.88;;;8.30;99.90;;;;;;6160185;23;20393;-73
2022/12/30 13:36:09;;;;;;;;;;;8.30;99.90;;;;;;6160633;23;20010;-73
2022/12/30 13:38:46;;;;;;;5.78;1.23;;;8.20;99.90;;;;;;6160758;23;20169;-73
2022/12/30 13:41:33;;;;;;;5.43;0.65;;;8.20;99.90;;;;;;6160632;23;20362;-73
2022/12/30 13:44:02;;;;;;;5.47;1.00;;;8.10;99.90;;;;;;6160332;23;20001;-73
2022/12/30 13:46:33;;;;;;;4.43;0.73;;;8.10;99.90;;;;;;6160033;23;20001;-73
2022/12/30 13:49:25;;;;;;;3.88;0.93;;;8.10;99.90;;;;;;6160423;23;20002;-73
2022/12/30 13:52:04;;;;;;;4.55;1.60;;;8.10;99.90;;;;;;6160008;23;20002;-73
2022/12/30 13:54:33;;;;;;;7.28;0.70;;;8.20;99.90;;;;;;6159899;23;20029;-73
2022/12/30 13:57:03;;;;;;;5.45;1.30;;;8.10;99.90;;;;;;6159958;23;20029;-73
2022/12/30 13:59:38;;;;;;;3.67;0.80;;;8.10;99.90;;;;;;6160440;23;20240;-73
2022/12/30 14:02:22;;;;;;;3.05;0.70;;;8.10;99.90;;;;;;6159810;23;20077;-73
2022/12/30 14:04:55;;;;;;;6.13;1.75;;;8.00;99.90;;;;;;6160434;23;20398;-73
2022/12/30 14:07:43;;;;;;;5.95;1.63;;;8.10;99.90;;;;;;6159839;23;20032;-73
2022/12/30 14:10:20;;;;;;;5.13;1.27;;;8.10;99.90;;;;;;6160438;23;20310;-73
2022/12/30 14:13:07;;;;;;;3.38;1.30;;;8.10;99.90;;;;;;6160642;23;20005;-73
2022/12/30 14:15:42;;;;;;;4.47;0.80;;;8.10;99.90;;;;;;6160482;23;20056;-73
2022/12/30 14:18:14;;;;;;;3.50;0.73;;;8.20;99.90;;;;;;6160431;23;20001;-73
2022/12/30 14:20:52;;;;;;;3.35;1.25;;;8.20;99.90;;;;;;6158393;23;20005;-73
2022/12/30 14:23:38;;;;;;;4.40;1.45;;;8.20;99.90;;;;;;6160072;23;20267;-73
2022/12/30 14:26:21;;;;;;;9.95;2.00;;;8.20;99.90;;;;;;6159788;23;20017;-73